createdAt,value
2023-05-05T00:00:03.784Z,505.6154
2023-05-05T00:01:06.126Z,509.8462
2023-05-05T00:02:08.451Z,514.3077
2023-05-05T00:03:10.817Z,519.7692
2023-05-05T00:04:13.120Z,521.2308
2023-05-05T00:05:15.451Z,521.3077
2023-05-05T00:06:17.767Z,521.8461
2023-05-05T00:07:20.128Z,521.3846
2023-05-05T00:08:22.472Z,516.5385
2023-05-05T00:09:24.793Z,515.0000
2023-05-05T00:10:27.151Z,509.5385
2023-05-05T00:11:29.480Z,510.0769
2023-05-05T00:12:31.887Z,511.2308
2023-05-05T00:13:34.232Z,511.0000
2023-05-05T00:14:36.486Z,510.7692
2023-05-05T00:15:38.787Z,510.6923
2023-05-05T00:16:41.158Z,507.4615
2023-05-05T00:17:43.576Z,507.4615
2023-05-05T00:18:45.794Z,511.4167
2023-05-05T00:19:48.176Z,515.1667
2023-05-05T00:20:50.511Z,515.0000
2023-05-05T00:21:52.850Z,512.9231
2023-05-05T00:22:55.152Z,509.6154
2023-05-05T00:23:57.999Z,506.6154
2023-05-05T00:25:00.753Z,507.8182
2023-05-05T00:26:02.164Z,509.6667
2023-05-05T00:27:04.523Z,508.4167
2023-05-05T00:28:06.857Z,510.6154
2023-05-05T00:29:09.203Z,511.1818
2023-05-05T00:30:11.508Z,508.6923
2023-05-05T00:31:13.936Z,507.5385
2023-05-05T00:32:16.225Z,507.2727
2023-05-05T00:33:18.544Z,513.7500
2023-05-05T00:34:20.884Z,514.1539
2023-05-05T00:35:23.221Z,515.3077
2023-05-05T00:36:25.639Z,518.7692
2023-05-05T00:37:27.929Z,521.6154
2023-05-05T00:38:30.322Z,521.1539
2023-05-05T00:39:32.652Z,523.3077
2023-05-05T00:40:34.984Z,522.6154
2023-05-05T00:41:37.286Z,522.9231
2023-05-05T00:42:39.630Z,520.6154
2023-05-05T00:43:42.049Z,513.3636
2023-05-05T00:44:44.319Z,512.2308
2023-05-05T00:45:46.666Z,513.5000
2023-05-05T00:46:49.515Z,517.1539
2023-05-05T00:47:51.491Z,517.7500
2023-05-05T00:48:54.196Z,518.6667
2023-05-05T00:49:56.393Z,519.5833
2023-05-05T00:50:58.312Z,519.4167
2023-05-05T00:52:00.671Z,518.8461
2023-05-05T00:53:03.035Z,528.8461
2023-05-05T00:54:05.401Z,533.9231
2023-05-05T00:55:08.055Z,528.3846
2023-05-05T00:56:10.074Z,521.0000
2023-05-05T00:57:12.825Z,521.8461
2023-05-05T00:58:15.201Z,525.7500
2023-05-05T00:59:17.411Z,523.0833
2023-05-05T01:00:19.359Z,521.0833
2023-05-05T01:01:21.788Z,520.6154
2023-05-05T01:02:24.079Z,518.9231
2023-05-05T01:03:26.912Z,517.0000
2023-05-05T01:04:28.764Z,518.6667
2023-05-05T01:05:31.216Z,518.1539
2023-05-05T01:06:34.079Z,520.5833
2023-05-05T01:07:36.557Z,524.8333
2023-05-05T01:08:38.062Z,523.2500
2023-05-05T01:09:40.400Z,518.6923
2023-05-05T01:10:42.765Z,517.3077
2023-05-05T01:11:45.058Z,514.6923
2023-05-05T01:12:47.498Z,515.7692
2023-05-05T01:13:49.784Z,518.0833
2023-05-05T01:14:52.102Z,517.6154
2023-05-05T01:15:54.434Z,520.3077
2023-05-05T01:16:56.785Z,524.4615
2023-05-05T01:17:59.132Z,522.7692
2023-05-05T01:19:01.419Z,523.1539
2023-05-05T01:20:03.751Z,522.9167
2023-05-05T01:21:06.102Z,524.3846
2023-05-05T01:22:08.569Z,527.8461
2023-05-05T01:23:10.781Z,529.6667
2023-05-05T01:24:13.225Z,528.8461
2023-05-05T01:25:15.514Z,525.0000
2023-05-05T01:26:17.808Z,525.4167
2023-05-05T01:27:20.140Z,528.0000
2023-05-05T01:28:22.448Z,528.3077
2023-05-05T01:29:24.787Z,527.3846
2023-05-05T01:30:27.127Z,526.9231
2023-05-05T01:31:29.460Z,526.9231
2023-05-05T01:32:31.858Z,528.7692
2023-05-05T01:33:34.268Z,526.6923
2023-05-05T01:34:36.438Z,527.2500
2023-05-05T01:35:38.755Z,528.2308
2023-05-05T01:36:41.077Z,529.3077
2023-05-05T01:37:43.478Z,528.9231
2023-05-05T01:38:46.376Z,530.3333
2023-05-05T01:39:48.252Z,533.8333
2023-05-05T01:40:50.470Z,534.0833
2023-05-05T01:41:52.871Z,531.6923
2023-05-05T01:42:55.536Z,526.9167
2023-05-05T01:43:57.435Z,526.7500
2023-05-05T01:44:59.834Z,528.4615
2023-05-05T01:46:02.139Z,530.8461
2023-05-05T01:47:04.445Z,534.3846
2023-05-05T01:48:06.774Z,543.2308
2023-05-05T01:49:09.077Z,544.3077
2023-05-05T01:50:11.424Z,543.2308
2023-05-05T01:51:13.770Z,541.9231
2023-05-05T01:52:16.106Z,542.0769
2023-05-05T01:53:18.425Z,543.1539
2023-05-05T01:54:20.738Z,544.1539
2023-05-05T01:55:23.083Z,539.6154
2023-05-05T01:56:25.418Z,536.3077
2023-05-05T01:57:27.778Z,531.9091
2023-05-05T01:58:30.126Z,531.6364
2023-05-05T01:59:32.510Z,534.1539
2023-05-05T02:00:34.777Z,538.9167
2023-05-05T02:01:37.147Z,539.8461
2023-05-05T02:02:39.546Z,542.1539
2023-05-05T02:03:41.778Z,542.8461
2023-05-05T02:04:44.097Z,533.0769
2023-05-05T02:05:46.597Z,529.0769
2023-05-05T02:06:48.780Z,529.8333
2023-05-05T02:07:51.087Z,535.3846
2023-05-05T02:08:53.471Z,538.2308
2023-05-05T02:09:55.753Z,540.3846
2023-05-05T02:10:58.129Z,535.3846
2023-05-05T02:12:00.462Z,532.9231
2023-05-05T02:13:02.824Z,534.8333
2023-05-05T02:14:05.148Z,533.9231
2023-05-05T02:15:07.470Z,535.2308
2023-05-05T02:16:09.841Z,536.0769
2023-05-05T02:17:12.140Z,537.5385
2023-05-05T02:18:14.476Z,536.3077
2023-05-05T02:19:16.790Z,534.6923
2023-05-05T02:20:19.098Z,531.3077
2023-05-05T02:21:21.486Z,533.7692
2023-05-05T02:22:23.807Z,535.0769
2023-05-05T02:23:26.147Z,534.6923
2023-05-05T02:24:28.520Z,536.0000
2023-05-05T02:25:30.775Z,538.3333
2023-05-05T02:26:33.165Z,539.2308
2023-05-05T02:27:35.468Z,548.7692
2023-05-05T02:28:37.831Z,545.6154
2023-05-05T02:29:40.164Z,541.0769
2023-05-05T02:30:42.492Z,540.4545
2023-05-05T02:31:44.964Z,539.2308
2023-05-05T02:32:47.214Z,537.1667
2023-05-05T02:33:49.498Z,536.1539
2023-05-05T02:34:51.822Z,537.0833
2023-05-05T02:35:54.126Z,537.7273
2023-05-05T02:36:56.468Z,539.6154
2023-05-05T02:37:58.786Z,540.6923
2023-05-05T02:39:01.135Z,542.2308
2023-05-05T02:40:03.501Z,547.6154
2023-05-05T02:41:05.791Z,551.8461
2023-05-05T02:42:08.182Z,557.3077
2023-05-05T02:43:10.568Z,558.3077
2023-05-05T02:44:12.815Z,559.1539
2023-05-05T02:45:15.176Z,557.9231
2023-05-05T02:46:17.491Z,556.6154
2023-05-05T02:47:19.828Z,556.8461
2023-05-05T02:48:22.137Z,556.2308
2023-05-05T02:49:24.517Z,561.6923
2023-05-05T02:50:26.858Z,566.0000
2023-05-05T02:51:29.177Z,560.2308
2023-05-05T02:52:31.559Z,554.9231
2023-05-05T02:53:33.796Z,556.4545
2023-05-05T02:54:36.130Z,560.6154
2023-05-05T02:55:38.480Z,562.1539
2023-05-05T02:56:40.802Z,562.0769
2023-05-05T02:57:43.166Z,562.2500
2023-05-05T02:58:45.470Z,560.1667
2023-05-05T02:59:47.814Z,554.8461
2023-05-05T03:00:50.136Z,555.6154
2023-05-05T03:01:52.558Z,559.3846
2023-05-05T03:02:54.947Z,565.6667
2023-05-05T03:03:57.322Z,564.7500
2023-05-05T03:04:59.482Z,564.7500
2023-05-05T03:06:01.858Z,562.7692
2023-05-05T03:07:04.146Z,560.0769
2023-05-05T03:08:06.508Z,557.5385
2023-05-05T03:09:08.862Z,558.9231
2023-05-05T03:10:11.184Z,559.3077
2023-05-05T03:11:13.528Z,557.7692
2023-05-05T03:12:15.844Z,558.0769
2023-05-05T03:13:18.196Z,557.0000
2023-05-05T03:14:20.502Z,557.3846
2023-05-05T03:15:22.847Z,557.8461
2023-05-05T03:16:25.214Z,564.3077
2023-05-05T03:17:27.501Z,566.2308
2023-05-05T03:18:29.835Z,568.0000
2023-05-05T03:19:32.171Z,565.7692
2023-05-05T03:20:34.486Z,567.6923
2023-05-05T03:21:36.816Z,566.5385
2023-05-05T03:22:39.305Z,565.5385
2023-05-05T03:23:41.485Z,564.8333
2023-05-05T03:24:43.796Z,562.4615
2023-05-05T03:25:46.165Z,559.3077
2023-05-05T03:26:48.495Z,561.0000
2023-05-05T03:27:50.784Z,561.4615
2023-05-05T03:28:53.156Z,560.3846
2023-05-05T03:29:55.473Z,561.0000
2023-05-05T03:30:57.822Z,563.8461
2023-05-05T03:32:00.181Z,563.8461
2023-05-05T03:33:02.521Z,567.0769
2023-05-05T03:34:04.802Z,567.6154
2023-05-05T03:35:07.126Z,567.0769
2023-05-05T03:36:09.489Z,562.3846
2023-05-05T03:37:11.840Z,559.4615
2023-05-05T03:38:14.154Z,562.2308
2023-05-05T03:39:16.521Z,564.4615
2023-05-05T03:40:18.827Z,560.0000
2023-05-05T03:41:21.142Z,558.8333
2023-05-05T03:42:23.510Z,557.0833
2023-05-05T03:43:25.927Z,557.8461
2023-05-05T03:44:28.202Z,561.6154
2023-05-05T03:45:30.505Z,565.7692
2023-05-05T03:46:32.803Z,567.3077
2023-05-05T03:47:35.322Z,568.6923
2023-05-05T03:48:37.510Z,566.9167
2023-05-05T03:49:39.839Z,566.7692
2023-05-05T03:50:42.142Z,564.9231
2023-05-05T03:51:44.484Z,560.2500
2023-05-05T03:52:46.807Z,559.5385
2023-05-05T03:53:49.179Z,558.6154
2023-05-05T03:54:51.486Z,559.6923
2023-05-05T03:55:53.811Z,558.2308
2023-05-05T03:56:56.174Z,554.7692
2023-05-05T03:57:58.514Z,554.7692
2023-05-05T03:59:00.889Z,555.0769
2023-05-05T04:00:03.185Z,559.7500
2023-05-05T04:01:05.526Z,561.2308
2023-05-05T04:02:07.940Z,557.6923
2023-05-05T04:03:10.412Z,557.8461
2023-05-05T04:04:12.657Z,558.0000
2023-05-05T04:05:14.896Z,561.0000
2023-05-05T04:06:17.183Z,556.8333
2023-05-05T04:07:19.526Z,559.3077
2023-05-05T04:08:21.844Z,564.9231
2023-05-05T04:09:24.204Z,564.3077
2023-05-05T04:10:26.566Z,560.9231
2023-05-05T04:11:28.874Z,558.2308
2023-05-05T04:12:31.252Z,560.6923
2023-05-05T04:13:33.538Z,560.4615
2023-05-05T04:14:35.894Z,557.4615
2023-05-05T04:15:38.261Z,547.0769
2023-05-05T04:16:40.859Z,543.6154
2023-05-05T04:17:42.945Z,536.1667
2023-05-05T04:18:45.431Z,531.0833
2023-05-05T04:19:47.577Z,530.8333
2023-05-05T04:20:49.920Z,534.7692
2023-05-05T04:21:52.480Z,536.6923
2023-05-05T04:22:54.547Z,535.5000
2023-05-05T04:23:56.936Z,535.6923
2023-05-05T04:24:59.660Z,535.8461
2023-05-05T04:26:01.599Z,535.4167
2023-05-05T04:27:03.896Z,535.9231
2023-05-05T04:28:06.240Z,538.8461
2023-05-05T04:29:08.552Z,537.6923
2023-05-05T04:30:10.913Z,537.2308
2023-05-05T04:31:13.329Z,541.5385
2023-05-05T04:32:15.950Z,540.2500
2023-05-05T04:33:18.019Z,544.6667
2023-05-05T04:34:20.412Z,545.8333
2023-05-05T04:35:22.670Z,541.7500
2023-05-05T04:36:24.950Z,541.3846
2023-05-05T04:37:27.309Z,543.3077
2023-05-05T04:38:29.697Z,546.6154
2023-05-05T04:39:31.954Z,542.0769
2023-05-05T04:40:34.326Z,539.6154
2023-05-05T04:41:36.751Z,541.5385
2023-05-05T04:42:39.080Z,543.0000
2023-05-05T04:43:41.388Z,539.5385
2023-05-05T04:44:43.752Z,538.1818
2023-05-05T04:45:46.456Z,537.0769
2023-05-05T04:46:48.486Z,535.7500
2023-05-05T04:47:51.028Z,533.0000
2023-05-05T04:48:53.075Z,529.7500
2023-05-05T04:49:55.440Z,529.7692
2023-05-05T04:50:57.838Z,530.6154
2023-05-05T04:52:00.169Z,530.6923
2023-05-05T04:53:02.453Z,531.9231
2023-05-05T04:54:04.800Z,529.6154
2023-05-05T04:55:07.154Z,528.3077
2023-05-05T04:56:09.491Z,527.4615
2023-05-05T04:57:11.875Z,527.0769
2023-05-05T04:58:14.188Z,528.5385
2023-05-05T04:59:16.529Z,527.5385
2023-05-05T05:00:18.837Z,528.6923
2023-05-05T05:01:21.255Z,530.0769
2023-05-05T05:02:24.079Z,529.0769
2023-05-05T05:03:26.010Z,532.0000
2023-05-05T05:04:29.534Z,535.2500
2023-05-05T05:05:30.576Z,533.8333
2023-05-05T05:06:32.915Z,531.6923
2023-05-05T05:07:35.260Z,528.1539
2023-05-05T05:08:37.561Z,525.7692
2023-05-05T05:09:39.934Z,523.0000
2023-05-05T05:10:42.250Z,523.9231
2023-05-05T05:11:44.603Z,527.9231
2023-05-05T05:12:46.962Z,528.4615
2023-05-05T05:13:49.287Z,530.6154
2023-05-05T05:14:51.628Z,529.7692
2023-05-05T05:15:53.938Z,529.4615
2023-05-05T05:16:56.312Z,528.4545
2023-05-05T05:17:58.652Z,530.4615
2023-05-05T05:19:01.823Z,531.4615
2023-05-05T05:20:03.341Z,531.2500
2023-05-05T05:21:05.664Z,529.9231
2023-05-05T05:22:08.018Z,525.7692
2023-05-05T05:23:10.358Z,524.5385
2023-05-05T05:24:12.735Z,524.6923
2023-05-05T05:25:14.999Z,522.7273
2023-05-05T05:26:17.343Z,522.4615
2023-05-05T05:27:19.688Z,524.3846
2023-05-05T05:28:22.033Z,524.1539
2023-05-05T05:29:24.326Z,525.4615
2023-05-05T05:30:26.678Z,526.1539
2023-05-05T05:31:29.016Z,525.6154
2023-05-05T05:32:31.371Z,526.9091
2023-05-05T05:33:33.728Z,523.4615
2023-05-05T05:34:36.039Z,518.9231
2023-05-05T05:35:38.396Z,518.0000
2023-05-05T05:36:40.723Z,516.2308
2023-05-05T05:37:43.021Z,515.3636
2023-05-05T05:38:45.436Z,514.2308
2023-05-05T05:39:47.743Z,511.2308
2023-05-05T05:40:50.056Z,506.2308
2023-05-05T05:41:52.381Z,504.0909
2023-05-05T05:42:54.741Z,504.0000
2023-05-05T05:43:57.076Z,507.1538
2023-05-05T05:44:59.402Z,513.0833
2023-05-05T05:46:01.874Z,513.9231
2023-05-05T05:47:04.060Z,512.9167
2023-05-05T05:48:06.419Z,510.0000
2023-05-05T05:49:08.748Z,508.3077
2023-05-05T05:50:11.194Z,507.3077
2023-05-05T05:51:13.450Z,506.8333
2023-05-05T05:52:15.788Z,507.3077
2023-05-05T05:53:18.133Z,509.6154
2023-05-05T05:54:20.507Z,503.4615
2023-05-05T05:55:22.810Z,494.4615
2023-05-05T05:56:25.155Z,494.9231
2023-05-05T05:57:27.477Z,491.8462
2023-05-05T05:58:29.934Z,492.6154
2023-05-05T05:59:32.177Z,491.6364
2023-05-05T06:00:34.539Z,492.5385
2023-05-05T06:01:36.916Z,494.0769
2023-05-05T06:02:39.268Z,492.5833
2023-05-05T06:03:41.606Z,492.1667
2023-05-05T06:04:43.920Z,491.1667
2023-05-05T06:05:46.196Z,492.1538
2023-05-05T06:06:48.523Z,491.3077
2023-05-05T06:07:50.876Z,491.5385
2023-05-05T06:08:53.211Z,490.0769
2023-05-05T06:09:55.579Z,486.3636
2023-05-05T06:10:57.888Z,486.4615
2023-05-05T06:12:00.228Z,488.3846
2023-05-05T06:13:02.557Z,488.3077
2023-05-05T06:14:04.874Z,488.7692
2023-05-05T06:15:07.229Z,489.1538
2023-05-05T06:16:09.698Z,487.1538
2023-05-05T06:17:11.948Z,485.4167
2023-05-05T06:18:14.350Z,485.3333
2023-05-05T06:19:16.631Z,486.0000
2023-05-05T06:20:18.948Z,486.9231
2023-05-05T06:21:21.251Z,487.4615
2023-05-05T06:22:23.591Z,487.0000
2023-05-05T06:23:25.967Z,489.8462
2023-05-05T06:24:28.328Z,491.7692
2023-05-05T06:25:30.649Z,494.0000
2023-05-05T06:26:32.959Z,491.4546
2023-05-05T06:27:35.304Z,490.7692
2023-05-05T06:28:37.699Z,489.9231
2023-05-05T06:29:40.057Z,486.5385
2023-05-05T06:30:42.364Z,488.7692
2023-05-05T06:31:44.716Z,488.0000
2023-05-05T06:32:47.039Z,488.0000
2023-05-05T06:33:49.388Z,486.8462
2023-05-05T06:34:51.702Z,489.9231
2023-05-05T06:35:54.026Z,491.0769
2023-05-05T06:36:56.399Z,489.2308
2023-05-05T06:37:58.755Z,486.9091
2023-05-05T06:39:01.056Z,487.0000
2023-05-05T06:40:03.402Z,488.0000
2023-05-05T06:41:05.748Z,485.4615
2023-05-05T06:42:08.097Z,482.0769
2023-05-05T06:43:10.423Z,481.3077
2023-05-05T06:44:12.807Z,479.8462
2023-05-05T06:45:15.107Z,479.9231
2023-05-05T06:46:17.533Z,478.2308
2023-05-05T06:47:19.814Z,480.1667
2023-05-05T06:48:22.122Z,480.3846
2023-05-05T06:49:24.499Z,479.0000
2023-05-05T06:50:26.861Z,476.5385
2023-05-05T06:51:29.180Z,476.0769
2023-05-05T06:52:31.479Z,475.2308
2023-05-05T06:53:33.844Z,474.3077
2023-05-05T06:54:36.160Z,473.2308
2023-05-05T06:55:38.581Z,471.3846
2023-05-05T06:56:40.883Z,471.0909
2023-05-05T06:57:43.220Z,473.0000
2023-05-05T06:58:45.515Z,480.1818
2023-05-05T06:59:48.112Z,479.0000
2023-05-05T07:00:50.257Z,475.0833
2023-05-05T07:01:52.544Z,474.3077
2023-05-05T07:02:54.909Z,473.6154
2023-05-05T07:03:57.304Z,471.7692
2023-05-05T07:04:59.555Z,470.6923
2023-05-05T07:06:01.888Z,465.3077
2023-05-05T07:07:04.268Z,463.9231
2023-05-05T07:08:06.567Z,463.5385
2023-05-05T07:09:08.927Z,465.9231
2023-05-05T07:10:11.259Z,466.6364
2023-05-05T07:11:13.624Z,466.9231
2023-05-05T07:12:15.958Z,466.4546
2023-05-05T07:13:18.381Z,467.5833
2023-05-05T07:14:21.536Z,466.7273
2023-05-05T07:15:28.154Z,467.2500
2023-05-05T07:16:25.325Z,467.7273
2023-05-05T07:17:27.674Z,467.1538
2023-05-05T07:18:30.018Z,468.5454
2023-05-05T07:19:32.362Z,467.6154
2023-05-05T07:20:34.720Z,465.1538
2023-05-05T07:21:36.997Z,465.0000
2023-05-05T07:22:39.392Z,464.0000
2023-05-05T07:23:41.718Z,460.9231
2023-05-05T07:24:44.066Z,458.6364
2023-05-05T07:25:46.389Z,458.3077
2023-05-05T07:26:48.721Z,457.0000
2023-05-05T07:27:51.102Z,457.7692
2023-05-05T07:28:53.403Z,455.7692
2023-05-05T07:29:55.789Z,457.3846
2023-05-05T07:30:58.259Z,456.3846
2023-05-05T07:32:00.479Z,459.5000
2023-05-05T07:33:02.959Z,460.1667
2023-05-05T07:34:05.130Z,459.0000
2023-05-05T07:35:07.482Z,459.3077
2023-05-05T07:36:09.820Z,455.5385
2023-05-05T07:37:12.233Z,451.8462
2023-05-05T07:38:14.545Z,450.6923
2023-05-05T07:39:16.876Z,449.0769
2023-05-05T07:40:19.198Z,448.6364
2023-05-05T07:41:21.565Z,447.4615
2023-05-05T07:42:23.894Z,448.6154
2023-05-05T07:43:26.288Z,453.1538
2023-05-05T07:44:28.627Z,451.6154
2023-05-05T07:45:30.963Z,450.0000
2023-05-05T07:46:33.521Z,452.6154
2023-05-05T07:47:35.675Z,450.0833
2023-05-05T07:48:37.989Z,449.4615
2023-05-05T07:49:40.359Z,447.2308
2023-05-05T07:50:42.744Z,445.4615
2023-05-05T07:51:45.063Z,445.9231
2023-05-05T07:52:51.722Z,447.6154
2023-05-05T07:53:49.761Z,450.2727
2023-05-05T07:54:52.096Z,450.4615
2023-05-05T07:55:54.398Z,449.6923
2023-05-05T07:56:56.741Z,448.6154
2023-05-05T07:57:59.119Z,447.0769
2023-05-05T07:59:01.480Z,445.3636
2023-05-05T08:00:03.831Z,443.7692
2023-05-05T08:01:06.159Z,442.4615
2023-05-05T08:02:08.563Z,442.3077
2023-05-05T08:03:12.022Z,449.3077
2023-05-05T08:04:13.312Z,450.6667
2023-05-05T08:05:15.576Z,451.0000
2023-05-05T08:06:17.857Z,451.0769
2023-05-05T08:07:20.261Z,450.6154
2023-05-05T08:08:22.556Z,448.8462
2023-05-05T08:09:24.937Z,446.6154
2023-05-05T08:10:27.253Z,446.3636
2023-05-05T08:11:29.758Z,444.6923
2023-05-05T08:12:31.956Z,446.2500
2023-05-05T08:13:34.339Z,445.2308
2023-05-05T08:14:36.669Z,445.9231
2023-05-05T08:15:39.042Z,445.5833
2023-05-05T08:16:41.378Z,451.8462
2023-05-05T08:17:43.774Z,452.9231
2023-05-05T08:18:46.060Z,451.4615
2023-05-05T08:19:48.413Z,452.7692
2023-05-05T08:20:50.740Z,452.4546
2023-05-05T08:21:53.058Z,453.4167
2023-05-05T08:22:55.456Z,453.3077
2023-05-05T08:23:57.800Z,457.9231
2023-05-05T08:25:00.164Z,456.5000
2023-05-05T08:26:02.507Z,454.5833
2023-05-05T08:27:04.833Z,453.0000
2023-05-05T08:28:07.142Z,453.8462
2023-05-05T08:29:09.560Z,456.7692
2023-05-05T08:30:11.883Z,456.7692
2023-05-05T08:31:14.341Z,457.7500
2023-05-05T08:32:16.591Z,455.8462
2023-05-05T08:33:19.023Z,456.0769
2023-05-05T08:34:21.294Z,455.9231
2023-05-05T08:35:23.647Z,456.9231
2023-05-05T08:36:25.985Z,455.8462
2023-05-05T08:37:28.295Z,456.3846
2023-05-05T08:38:30.645Z,456.0000
2023-05-05T08:39:32.987Z,455.5385
2023-05-05T08:40:35.331Z,455.4615
2023-05-05T08:41:37.693Z,453.7692
2023-05-05T08:42:40.025Z,454.0769
2023-05-05T08:43:42.383Z,455.9231
2023-05-05T08:44:44.743Z,460.0769
2023-05-05T08:45:47.083Z,454.5385
2023-05-05T08:46:49.585Z,451.4167
2023-05-05T08:47:51.928Z,449.8333
2023-05-05T08:48:54.288Z,445.3077
2023-05-05T08:49:56.558Z,447.7692
2023-05-05T08:51:00.349Z,452.2308
2023-05-05T08:52:01.292Z,453.1667
2023-05-05T08:53:03.741Z,453.0769
2023-05-05T08:54:05.966Z,451.5833
2023-05-05T08:55:08.480Z,452.2308
2023-05-05T08:56:10.650Z,451.1667
2023-05-05T08:57:13.042Z,448.4615
2023-05-05T08:58:15.353Z,447.1818
2023-05-05T08:59:17.698Z,449.6923
2023-05-05T09:00:20.053Z,451.6154
2023-05-05T09:01:22.418Z,453.3077
2023-05-05T09:02:25.057Z,443.7500
2023-05-05T09:03:27.154Z,442.7500
2023-05-05T09:04:29.653Z,446.5385
2023-05-05T09:05:31.821Z,447.0000
2023-05-05T09:06:34.239Z,447.3846
2023-05-05T09:07:36.552Z,450.7692
2023-05-05T09:08:38.874Z,444.5454
2023-05-05T09:09:41.216Z,440.6154
2023-05-05T09:10:43.555Z,440.4167
2023-05-05T09:11:45.908Z,439.6154
2023-05-05T09:12:48.301Z,437.6923
2023-05-05T09:13:50.614Z,436.8462
2023-05-05T09:14:52.965Z,430.8462
2023-05-05T09:15:55.330Z,431.3846
2023-05-05T09:16:57.756Z,435.0769
2023-05-05T09:18:00.083Z,444.9167
2023-05-05T09:19:02.361Z,444.5000
2023-05-05T09:20:04.780Z,447.2308
2023-05-05T09:21:07.065Z,441.2308
2023-05-05T09:22:09.422Z,435.6154
2023-05-05T09:23:11.761Z,433.2308
2023-05-05T09:24:14.102Z,432.1538
2023-05-05T09:25:16.483Z,438.7692
2023-05-05T09:26:18.796Z,445.1538
2023-05-05T09:27:21.176Z,444.3846
2023-05-05T09:28:23.531Z,434.7692
2023-05-05T09:29:25.848Z,436.6923
2023-05-05T09:30:28.224Z,443.5385
2023-05-05T09:31:30.760Z,443.1538
2023-05-05T09:32:32.916Z,447.0833
2023-05-05T09:33:35.250Z,441.7692
2023-05-05T09:34:37.586Z,441.0000
2023-05-05T09:35:40.054Z,441.8462
2023-05-05T09:36:42.328Z,446.5385
2023-05-05T09:37:44.629Z,451.6923
2023-05-05T09:38:47.037Z,448.7692
2023-05-05T09:39:49.322Z,448.8333
2023-05-05T09:40:51.673Z,449.1538
2023-05-05T09:41:54.033Z,451.3846
2023-05-05T09:42:56.368Z,449.5385
2023-05-05T09:43:58.957Z,448.0000
2023-05-05T09:45:01.785Z,446.8333
2023-05-05T09:46:03.620Z,445.8333
2023-05-05T09:47:18.171Z,447.4167
2023-05-05T09:48:08.396Z,446.4546
2023-05-05T09:49:19.588Z,451.3333
2023-05-05T09:50:13.296Z,450.4546
2023-05-05T09:51:15.488Z,447.9167
2023-05-05T09:52:17.941Z,449.5000
2023-05-05T09:53:20.110Z,449.6667
2023-05-05T09:54:22.266Z,449.0833
2023-05-05T09:55:25.055Z,459.4167
2023-05-05T09:56:27.532Z,453.9167
2023-05-05T09:57:29.320Z,448.9167
2023-05-05T09:58:31.767Z,442.3077
2023-05-05T09:59:34.433Z,447.3333
2023-05-05T10:00:37.646Z,446.4167
2023-05-05T10:01:38.773Z,440.4167
2023-05-05T10:02:41.039Z,437.2500
2023-05-05T10:03:44.035Z,438.2308
2023-05-05T10:04:45.940Z,443.7500
2023-05-05T10:05:48.370Z,449.5000
2023-05-05T10:06:50.453Z,448.8333
2023-05-05T10:07:53.641Z,452.4167
2023-05-05T10:08:55.123Z,446.3636
2023-05-05T10:09:57.492Z,444.7692
2023-05-05T10:10:59.822Z,441.4546
2023-05-05T10:12:02.325Z,442.4615
2023-05-05T10:13:04.703Z,442.7500
2023-05-05T10:14:08.246Z,446.7500
2023-05-05T10:15:10.291Z,449.5000
2023-05-05T10:16:12.018Z,453.7500
2023-05-05T10:17:14.293Z,450.9167
2023-05-05T10:18:16.443Z,450.3333
2023-05-05T10:19:19.048Z,449.1667
2023-05-05T10:20:21.170Z,449.9167
2023-05-05T10:21:23.661Z,445.5833
2023-05-05T10:22:26.227Z,441.0833
2023-05-05T10:23:29.383Z,436.8333
2023-05-05T10:24:31.371Z,436.0833
2023-05-05T10:25:33.007Z,439.0000
2023-05-05T10:26:35.535Z,437.2500
2023-05-05T10:27:38.162Z,437.0000
2023-05-05T10:28:39.787Z,436.4167
2023-05-05T10:29:42.410Z,436.9231
2023-05-05T10:30:44.481Z,439.6667
2023-05-05T10:31:47.006Z,440.9231
2023-05-05T10:32:56.009Z,443.5000
2023-05-05T10:33:52.796Z,443.3636
2023-05-05T10:34:54.635Z,436.5833
2023-05-05T10:35:57.389Z,432.3333
2023-05-05T10:36:58.583Z,428.2500
2023-05-05T10:38:02.161Z,428.5833
2023-05-05T10:39:03.281Z,424.9167
2023-05-05T10:40:06.232Z,428.5385
2023-05-05T10:41:07.929Z,428.0000
2023-05-05T10:42:10.357Z,430.7692
2023-05-05T10:43:12.670Z,432.0000
2023-05-05T10:44:15.073Z,432.0769
2023-05-05T10:45:17.341Z,431.0833
2023-05-05T10:46:19.800Z,433.3077
2023-05-05T10:47:22.095Z,431.9231
2023-05-05T10:48:24.412Z,430.4615
2023-05-05T10:49:26.749Z,430.0769
2023-05-05T10:50:29.104Z,427.0000
2023-05-05T10:51:39.893Z,428.9231
2023-05-05T10:52:33.824Z,429.4546
2023-05-05T10:53:36.215Z,432.3846
2023-05-05T10:54:38.622Z,438.3077
2023-05-05T10:55:40.852Z,441.4167
2023-05-05T10:56:43.201Z,435.3846
2023-05-05T10:57:45.556Z,430.6154
2023-05-05T10:58:59.581Z,430.3846
2023-05-05T10:59:50.210Z,434.4546
2023-05-05T11:00:52.652Z,435.6154
2023-05-05T11:01:54.926Z,433.0769
2023-05-05T11:02:57.344Z,431.0769
2023-05-05T11:03:59.712Z,430.5000
2023-05-05T11:05:01.948Z,434.5385
2023-05-05T11:06:04.309Z,438.1538
2023-05-05T11:07:06.652Z,438.2308
2023-05-05T11:08:08.980Z,434.2308
2023-05-05T11:09:11.395Z,431.2308
2023-05-05T11:10:13.749Z,426.6923
2023-05-05T11:11:16.053Z,428.0000
2023-05-05T11:12:18.417Z,428.3846
2023-05-05T11:13:20.902Z,426.4615
2023-05-05T11:14:23.253Z,432.3333
2023-05-05T11:15:25.453Z,446.3333
2023-05-05T11:16:27.823Z,450.7692
2023-05-05T11:17:30.136Z,442.9231
2023-05-05T11:18:32.501Z,445.2308
2023-05-05T11:19:34.819Z,450.9231
2023-05-05T11:20:37.213Z,458.0000
2023-05-05T11:21:39.560Z,448.2308
2023-05-05T11:22:41.856Z,438.9231
2023-05-05T11:23:44.270Z,431.3846
2023-05-05T11:24:46.814Z,428.7692
2023-05-05T11:25:48.913Z,438.6667
2023-05-05T11:26:51.292Z,450.3077
2023-05-05T11:27:53.596Z,448.4167
2023-05-05T11:28:55.969Z,448.2308
2023-05-05T11:29:58.292Z,444.5385
2023-05-05T11:31:00.685Z,441.6923
2023-05-05T11:32:03.002Z,440.6154
2023-05-05T11:33:05.399Z,441.2500
2023-05-05T11:34:07.720Z,440.1538
2023-05-05T11:35:10.958Z,446.5833
2023-05-05T11:36:12.405Z,445.4167
2023-05-05T11:37:14.759Z,443.7692
2023-05-05T11:38:17.112Z,443.6154
2023-05-05T11:39:19.745Z,441.0769
2023-05-05T11:40:21.881Z,449.4167
2023-05-05T11:41:24.141Z,456.6154
2023-05-05T11:42:26.498Z,463.3077
2023-05-05T11:43:28.830Z,459.9231
2023-05-05T11:44:31.204Z,454.8462
2023-05-05T11:45:33.548Z,451.8333
2023-05-05T11:46:35.958Z,444.1538
2023-05-05T11:47:38.296Z,436.2308
2023-05-05T11:48:40.620Z,447.6923
2023-05-05T11:49:42.984Z,446.0769
2023-05-05T11:50:45.299Z,444.2308
2023-05-05T11:51:47.642Z,440.1538
2023-05-05T11:52:50.004Z,441.4615
2023-05-05T11:53:52.362Z,443.2308
2023-05-05T11:54:54.734Z,446.1538
2023-05-05T11:55:57.132Z,444.0769
2023-05-05T11:56:59.445Z,445.8462
2023-05-05T11:58:01.747Z,447.4167
2023-05-05T11:59:04.125Z,448.8462
2023-05-05T12:00:06.661Z,452.0000
2023-05-05T12:01:08.819Z,459.8333
2023-05-05T12:02:11.178Z,456.4615
2023-05-05T12:03:13.589Z,449.9231
2023-05-05T12:04:16.149Z,437.0000
2023-05-05T12:05:18.221Z,434.3333
2023-05-05T12:06:20.571Z,438.1538
2023-05-05T12:07:22.919Z,453.6154
2023-05-05T12:08:25.290Z,455.2308
2023-05-05T12:09:27.624Z,456.7692
2023-05-05T12:10:29.959Z,461.0000
2023-05-05T12:11:32.357Z,460.2308